Tachikawa, Japan

9:46 PM JST on August 21, 2018 (GMT +0900)
ITOKYOHI1 | | Change Station

Elev 282 ft 35.66 °N, 139.40 °E | Updated 4 seconds ago

Clear
Clear
79 °F
Feels Like 83 °F
N
8.1
Wind Variable Wind from South
Gusts 4.3 mph

Today
High -- | Low -- °F
--% Chance of Precip.
Yesterday
High -- | Low -- °F
Precip. -- in
Pressure 29.96 in
Visibility 10.0 miles
Clouds Clear
Heat Index 83 °F
Dew Point 75 °F
Humidity 87%
Rainfall 0.00 in
Snow Depth Not available.
5:05 AM 6:25 PM
Waxing Gibbous, 79% visible
METAR RJTY 211156Z AUTO 19013KT 10SM CLR 26/24 A2996 RMK AO2 SLPNO T02640236 10314 20263 52017 FZRANO $
Pressure 29.96 in
Visibility 10.0 miles
Clouds Clear
Heat Index 83 °F
Dew Point 75 °F
Humidity 87%
Rainfall 0.00 in
Snow Depth Not available.
5:05 AM 6:25 PM
Waxing Gibbous, 79% visible
METAR RJTY 211156Z AUTO 19013KT 10SM CLR 26/24 A2996 RMK AO2 SLPNO T02640236 10314 20263 52017 FZRANO $

Get Severe Weather Alerts

Thanks for signing up!

Be on the lookout for a verification email in your inbox.

You'll start receiving the daily forecast at 6 AM.

×

10-Day Weather Forecast

No radar image for this location.
×

Almanac

Astronomy

Aug. 21, 2018 Rise Set
Actual Time
Civil Twilight
Nautical Twilight
Astronomical Twilight
Moon
Length of Visible Light
Length of Day
Tomorrow will be .
, % of the Moon is Illuminated

Today's Extremes

Country Highs Country Lows

Community

WunderPhotos

Category 6

Welcome to Category 6. This is the collective home for Weather Underground's featured writeups by Dr. Jeff Masters (right), Bob Henson (left), Chris Burt, and other regular contributors.

Nearby

Air Quality

  Air Quality AQ Index Pollutant
Not available.

Snow Depth

Station Depth Elevation

Earthquake Activity

City Distance Mag. Time & Date
Minimum magnitude displayed is 2.5.

Coastal Water Temperatures

Place Temperature

Stations

Nearby Weather Stations

Station Location Temp. Windchill Dew Point Humidity Wind Precip. Elev Updated Type